Time;durP1;ratioP1;P1;durP2;ratioP2;P2;SDS_P1;SDS_P2;PMS_P1;PMS_P2;Temp;Humidity;BMP_temperature;BMP_pressure;BME280_temperature;BME280_humidity;BME280_pressure;Samples;Min_cycle;Max_cycle;Signal;HPM_P1;HPM_P2
2022/08/29 00:02:32;;;;;;;;;;;;;;;17.61;52.68;100051.22;12202855;19;19932;-81
2022/08/29 00:06:36;;;;;;;;;;;;;;;17.51;53.40;100052.13;12225598;19;19906;-81
2022/08/29 00:10:38;;;;;;;;;;;;;;;17.46;53.14;100052.19;12224129;19;19911;-81
2022/08/29 00:14:41;;;;;;;;;;;;;;;17.41;53.24;100052.19;12202769;19;19967;-81
2022/08/29 00:18:42;;;;;;;;;;;;;;;17.36;53.60;100043.03;12224924;19;19979;-81
2022/08/29 00:22:44;;;;;;;;;;;;;;;17.24;54.62;100044.22;12203110;19;19922;-81
2022/08/29 00:26:46;;;;;;;;;;;;;;;17.19;54.44;100041.50;12224122;19;19914;-81
2022/08/29 00:30:47;;;;;;;;;;;;;;;17.15;54.63;100042.34;12223198;19;19933;-81
2022/08/29 00:34:50;;;;;;;;;;;;;;;17.12;54.77;100045.72;12199032;19;19907;-81
2022/08/29 00:38:51;;;;;;;;;;;;;;;17.07;54.84;100039.06;12223969;19;19918;-81
2022/08/29 00:42:53;;;;;;;;;;;;;;;17.03;55.05;100051.88;12223597;19;20446;-81
2022/08/29 00:46:57;;;;;;;;;;;;;;;17.00;55.53;100040.50;12201080;19;19931;-81
2022/08/29 00:51:02;;;;;;;;;;;;;;;16.94;55.56;100056.38;12223319;19;19939;-80
2022/08/29 00:55:08;;;;;;;;;;;;;;;16.87;55.53;100049.47;12223256;19;19938;-81
2022/08/29 00:59:16;;;;;;;;;;;;;;;16.85;55.53;100055.31;12201254;19;19906;-81
2022/08/29 01:03:17;;;;;;;;;;;;;;;16.79;56.11;100046.16;12220458;19;19978;-81
2022/08/29 01:07:19;;;;;;;;;;;;;;;16.75;56.02;100050.59;12222500;19;19918;-81
2022/08/29 01:15:44;;;;;;;;;;;;;;;16.70;56.70;100058.97;12218702;19;19917;-81
2022/08/29 01:20:04;;;;;;;;;;;;;;;16.66;56.63;100057.88;12168280;19;19938;-81
2022/08/29 01:24:15;;;;;;;;;;;;;;;16.61;56.64;100058.72;12221600;19;19911;-81
2022/08/29 01:28:19;;;;;;;;;;;;;;;16.52;57.69;100057.66;12230115;19;19922;-79
2022/08/29 01:32:23;;;;;;;;;;;;;;;16.54;57.86;100060.16;12250726;19;19915;-80
2022/08/29 01:36:33;;;;;;;;;;;;;;;16.53;57.27;100059.31;12265731;19;19950;-81
2022/08/29 01:40:37;;;;;;;;;;;;;;;16.45;58.13;100054.34;12225021;19;19911;-81
2022/08/29 01:44:41;;;;;;;;;;;;;;;16.43;58.22;100055.72;12204743;19;19921;-81
2022/08/29 01:48:45;;;;;;;;;;;;;;;16.39;58.30;100064.66;12234632;19;19918;-81
2022/08/29 01:52:47;;;;;;;;;;;;;;;16.36;58.40;100054.09;12211990;19;20329;-81
2022/08/29 01:57:00;;;;;;;;;;;;;;;16.35;58.19;100073.81;12234893;19;20286;-81
2022/08/29 02:01:02;;;;;;;;;;;;;;;16.25;58.81;100068.28;12234691;19;19914;-81
2022/08/29 02:05:03;;;;;;;;;;;;;;;16.25;58.82;100080.25;12212633;19;19962;-81
2022/08/29 02:09:05;;;;;;;;;;;;;;;16.14;59.70;100070.25;12235627;19;20462;-81
2022/08/29 02:13:10;;;;;;;;;;;;;;;16.14;59.18;100065.50;12233631;19;19915;-81
2022/08/29 02:17:13;;;;;;;;;;;;;;;16.09;59.37;100073.03;12208581;19;19924;-81
2022/08/29 02:21:18;;;;;;;;;;;;;;;16.06;59.43;100077.22;12231196;19;19974;-81
2022/08/29 02:29:45;;;;;;;;;;;;;;;15.97;60.47;100072.50;12210461;19;19914;-81
2022/08/29 02:33:47;;;;;;;;;;;;;;;15.95;59.82;100075.56;12228880;19;19914;-81
2022/08/29 02:37:50;;;;;;;;;;;;;;;15.90;59.98;100072.78;12206677;19;19910;-82
2022/08/29 02:41:52;;;;;;;;;;;;;;;15.86;60.02;100069.72;12231375;19;19919;-81
2022/08/29 02:45:54;;;;;;;;;;;;;;;15.86;60.17;100071.69;12230465;19;19978;-81
2022/08/29 02:49:56;;;;;;;;;;;;;;;15.83;59.62;100073.06;12209588;19;19918;-81
2022/08/29 02:53:58;;;;;;;;;;;;;;;15.78;60.52;100073.06;12228337;19;20356;-81
2022/08/29 02:58:00;;;;;;;;;;;;;;;15.77;60.54;100074.19;12227600;19;19911;-81
2022/08/29 03:02:01;;;;;;;;;;;;;;;15.77;60.08;100074.19;12206560;19;19922;-81
2022/08/29 03:06:03;;;;;;;;;;;;;;;15.74;60.50;100083.06;12230008;19;19914;-81
2022/08/29 03:10:06;;;;;;;;;;;;;;;15.71;60.81;100072.50;12231566;19;19921;-81
2022/08/29 03:14:07;;;;;;;;;;;;;;;15.69;61.07;100075.56;12209161;19;20289;-80
2022/08/29 03:18:09;;;;;;;;;;;;;;;15.65;60.71;100082.75;12226059;19;19921;-81
2022/08/29 03:22:11;;;;;;;;;;;;;;;15.61;60.82;100083.56;12227244;19;19918;-80
2022/08/29 03:26:12;;;;;;;;;;;;;;;15.60;60.66;100090.25;12206400;19;19982;-81
2022/08/29 03:30:16;;;;;;;;;;;;;;;15.55;60.72;100093.84;12228045;19;19978;-81
2022/08/29 03:34:19;;;;;;;;;;;;;;;15.50;61.41;100094.69;12226621;19;19922;-81
2022/08/29 03:38:28;;;;;;;;;;;;;;;15.45;61.52;100094.66;12206176;19;20280;-80
2022/08/29 03:42:29;;;;;;;;;;;;;;;15.42;61.36;100091.63;12226240;19;19911;-80
2022/08/29 03:46:31;;;;;;;;;;;;;;;15.36;61.72;100101.88;12229341;19;20332;-80
2022/08/29 03:50:32;;;;;;;;;;;;;;;15.30;62.46;100100.19;12205592;19;19920;-80
2022/08/29 03:54:35;;;;;;;;;;;;;;;15.20;62.52;100089.91;12227166;19;20261;-80
2022/08/29 03:58:36;;;;;;;;;;;;;;;15.10;62.89;100083.47;12228100;19;19918;-80
2022/08/29 04:02:39;;;;;;;;;;;;;;;15.03;62.78;100080.97;12206534;19;19911;-80
2022/08/29 04:06:42;;;;;;;;;;;;;;;14.95;64.16;100087.88;12225522;19;20332;-79
2022/08/29 04:10:48;;;;;;;;;;;;;;;14.91;64.15;100086.75;12201513;19;19915;-80
2022/08/29 04:14:50;;;;;;;;;;;;;;;14.89;63.96;100086.19;12227359;19;19962;-80
2022/08/29 04:18:51;;;;;;;;;;;;;;;14.89;63.65;100088.97;12226075;19;19911;-79
2022/08/29 04:22:55;;;;;;;;;;;;;;;14.86;63.61;100080.34;12203574;19;19907;-80
2022/08/29 04:26:56;;;;;;;;;;;;;;;14.85;63.93;100079.53;12226429;19;20359;-82
2022/08/29 04:30:58;;;;;;;;;;;;;;;14.79;63.85;100081.44;12225485;19;19915;-82
2022/08/29 04:35:00;;;;;;;;;;;;;;;14.76;64.69;100086.72;12202728;19;19949;-82
2022/08/29 04:39:03;;;;;;;;;;;;;;;14.75;64.60;100082.25;12226857;19;19911;-81
2022/08/29 04:43:04;;;;;;;;;;;;;;;14.74;65.00;100088.91;12226112;19;19914;-82
2022/08/29 04:47:06;;;;;;;;;;;;;;;14.78;64.56;100092.78;12202168;19;19938;-82
2022/08/29 04:51:10;;;;;;;;;;;;;;;14.85;63.97;100098.94;12222141;19;19953;-82
2022/08/29 04:55:13;;;;;;;;;;;;;;;14.86;64.51;100102.56;12223270;19;19915;-82
2022/08/29 04:59:21;;;;;;;;;;;;;;;14.92;64.62;100107.84;12201307;19;19937;-82
2022/08/29 05:03:24;;;;;;;;;;;;;;;14.93;64.42;100112.31;12221457;19;19978;-82
2022/08/29 05:07:25;;;;;;;;;;;;;;;14.93;64.44;100123.41;12222780;19;19971;-82
2022/08/29 05:11:28;;;;;;;;;;;;;;;14.91;64.50;100131.16;12200731;19;20348;-82
2022/08/29 05:15:30;;;;;;;;;;;;;;;14.93;64.18;100128.09;12222574;19;19934;-82
2022/08/29 05:19:32;;;;;;;;;;;;;;;14.92;64.41;100130.03;12224452;19;19927;-82
2022/08/29 05:23:35;;;;;;;;;;;;;;;14.88;64.80;100134.47;12206198;19;19906;-82
2022/08/29 05:27:38;;;;;;;;;;;;;;;14.87;65.04;100132.78;12236159;19;19911;-82
2022/08/29 05:31:40;;;;;;;;;;;;;;;14.89;65.13;100126.97;12226453;19;19970;-82
2022/08/29 05:35:45;;;;;;;;;;;;;;;14.88;65.40;100123.38;12231512;19;19911;-82
2022/08/29 05:39:47;;;;;;;;;;;;;;;14.94;65.10;100130.63;12235046;19;20352;-82
2022/08/29 05:43:48;;;;;;;;;;;;;;;14.95;65.13;100131.44;12212784;19;19919;-82
2022/08/29 05:47:50;;;;;;;;;;;;;;;14.98;65.23;100137.28;12236521;19;19919;-82
2022/08/29 05:51:52;;;;;;;;;;;;;;;15.03;64.80;100147.56;12234649;19;19920;-82
2022/08/29 05:55:54;;;;;;;;;;;;;;;15.10;64.87;100144.53;12214591;19;19907;-82
2022/08/29 05:59:56;;;;;;;;;;;;;;;15.17;64.66;100139.56;12237049;19;20335;-82
2022/08/29 06:03:58;;;;;;;;;;;;;;;15.21;64.85;100147.09;12233717;19;19914;-82
2022/08/29 06:08:00;;;;;;;;;;;;;;;15.27;64.89;100146.00;12213760;19;19947;-82
2022/08/29 06:12:02;;;;;;;;;;;;;;;15.37;64.68;100138.81;12236004;19;20347;-82
2022/08/29 06:16:04;;;;;;;;;;;;;;;15.43;64.29;100141.31;12235523;19;20264;-82
2022/08/29 06:20:08;;;;;;;;;;;;;;;15.52;64.20;100135.22;12212225;19;19914;-82
2022/08/29 06:24:10;;;;;;;;;;;;;;;15.61;64.24;100133.56;12230659;19;19942;-82
2022/08/29 06:28:11;;;;;;;;;;;;;;;15.70;64.08;100134.72;12234018;19;19915;-79
2022/08/29 06:32:24;;;;;;;;;;;;;;;15.84;63.46;100130.31;12209939;19;19975;-82
2022/08/29 06:36:26;;;;;;;;;;;;;;;15.94;63.18;100140.56;12229847;19;19910;-82
2022/08/29 06:40:27;;;;;;;;;;;;;;;16.06;63.15;100141.16;12234514;19;19918;-80
2022/08/29 06:44:30;;;;;;;;;;;;;;;16.19;62.70;100145.31;12212512;19;19915;-82
2022/08/29 06:48:31;;;;;;;;;;;;;;;16.36;62.46;100154.19;12234482;19;19924;-81
2022/08/29 06:52:33;;;;;;;;;;;;;;;16.46;62.27;100153.34;12232253;19;19917;-82
2022/08/29 06:56:36;;;;;;;;;;;;;;;16.60;61.55;100148.88;12211930;19;20389;-82
2022/08/29 07:00:39;;;;;;;;;;;;;;;16.79;61.41;100149.13;12238091;19;20311;-81
2022/08/29 07:04:41;;;;;;;;;;;;;;;17.09;60.96;100127.84;12209550;19;20261;-81
2022/08/29 07:08:42;;;;;;;;;;;;;;;17.30;60.25;100125.81;12229661;19;19911;-79
2022/08/29 07:12:56;;;;;;;;;;;;;;;17.59;59.66;100150.16;12226427;19;20336;-81
2022/08/29 07:16:59;;;;;;;;;;;;;;;17.84;58.69;100165.91;12205197;19;19918;-81
2022/08/29 07:21:04;;;;;;;;;;;;;;;18.14;58.44;100174.03;12226056;19;19907;-82
2022/08/29 07:25:06;;;;;;;;;;;;;;;18.41;57.36;100164.31;12228003;19;19915;-82
2022/08/29 07:29:11;;;;;;;;;;;;;;;18.55;56.29;100184.81;12206076;19;19919;-82
2022/08/29 07:33:12;;;;;;;;;;;;;;;18.78;55.57;100186.03;12223108;19;19915;-80
2022/08/29 07:37:14;;;;;;;;;;;;;;;19.10;55.46;100188.19;12230853;19;19942;-80
2022/08/29 07:41:17;;;;;;;;;;;;;;;19.37;55.01;100183.13;12256218;19;19919;-80
2022/08/29 07:45:19;;;;;;;;;;;;;;;19.68;54.09;100175.16;12265826;19;19911;-80
2022/08/29 07:49:20;;;;;;;;;;;;;;;20.13;53.31;100173.63;12235347;19;20334;-80
2022/08/29 07:53:22;;;;;;;;;;;;;;;20.46;51.87;100176.41;12210089;19;19907;-80
2022/08/29 07:57:23;;;;;;;;;;;;;;;20.67;50.96;100179.72;12231713;19;19914;-80
2022/08/29 08:01:25;;;;;;;;;;;;;;;20.93;50.77;100169.69;12231996;19;20252;-82
2022/08/29 08:05:27;;;;;;;;;;;;;;;21.25;49.21;100181.13;12211558;19;19926;-82
2022/08/29 08:09:29;;;;;;;;;;;;;;;21.55;48.12;100172.06;12232027;19;19914;-80
2022/08/29 08:13:31;;;;;;;;;;;;;;;21.93;48.15;100177.38;12230937;19;19918;-80
2022/08/29 08:17:32;;;;;;;;;;;;;;;22.28;47.19;100178.50;12218275;19;19914;-79
2022/08/29 08:21:34;;;;;;;;;;;;;;;22.51;46.74;100178.47;12243720;19;19918;-79
2022/08/29 08:25:36;;;;;;;;;;;;;;;22.62;44.45;100176.25;12251059;19;19919;-79
2022/08/29 08:29:38;;;;;;;;;;;;;;;22.68;44.83;100181.41;12228998;19;19981;-80
2022/08/29 08:33:41;;;;;;;;;;;;;;;22.91;44.32;100181.34;12227343;19;19923;-81
2022/08/29 08:37:43;;;;;;;;;;;;;;;22.92;44.08;100183.84;12206525;19;19942;-81
2022/08/29 08:41:51;;;;;;;;;;;;;;;23.03;43.94;100181.59;12228378;19;20302;-82
2022/08/29 08:45:54;;;;;;;;;;;;;;;23.08;43.78;100173.03;12228259;19;19942;-81
2022/08/29 08:50:00;;;;;;;;;;;;;;;23.30;43.21;100179.72;12204010;19;19919;-81
2022/08/29 08:54:06;;;;;;;;;;;;;;;23.57;43.37;100187.88;12226566;19;19921;-82
2022/08/29 08:58:13;;;;;;;;;;;;;;;23.81;43.29;100183.81;12225777;19;19923;-81
2022/08/29 09:02:33;;;;;;;;;;;;;;;23.94;42.84;100171.56;12204633;19;19974;-82
2022/08/29 09:06:48;;;;;;;;;;;;;;;23.72;43.50;100192.25;12227750;19;20373;-81
2022/08/29 09:10:50;;;;;;;;;;;;;;;23.49;43.29;100194.31;12204609;19;20262;-82
2022/08/29 09:15:03;;;;;;;;;;;;;;;23.30;43.20;100188.16;12227660;19;19925;-81
2022/08/29 09:19:08;;;;;;;;;;;;;;;23.34;43.21;100191.97;12225679;19;19937;-81
2022/08/29 09:23:16;;;;;;;;;;;;;;;23.55;43.17;100193.00;12201995;19;20265;-81
2022/08/29 09:27:20;;;;;;;;;;;;;;;23.59;43.03;100194.03;12226155;19;19907;-81
2022/08/29 09:31:24;;;;;;;;;;;;;;;23.81;43.18;100198.72;12225038;19;20342;-81
2022/08/29 09:35:28;;;;;;;;;;;;;;;24.26;42.61;100186.28;12204240;19;20275;-81
2022/08/29 09:39:31;;;;;;;;;;;;;;;24.51;41.76;100184.63;12223464;19;19919;-81
2022/08/29 09:43:45;;;;;;;;;;;;;;;24.79;41.45;100183.06;12223434;19;19927;-82
2022/08/29 09:47:47;;;;;;;;;;;;;;;24.83;41.29;100177.59;12205738;19;19942;-81
2022/08/29 09:51:48;;;;;;;;;;;;;;;24.74;41.48;100177.59;12224873;19;19911;-82
2022/08/29 09:55:51;;;;;;;;;;;;;;;25.12;40.98;100178.81;12203499;19;19928;-81
2022/08/29 10:00:11;;;;;;;;;;;;;;;25.24;39.92;100171.31;12224241;19;19915;-82
2022/08/29 10:04:33;;;;;;;;;;;;;;;25.35;40.06;100170.94;12225914;19;19931;-82
2022/08/29 10:08:35;;;;;;;;;;;;;;;25.50;38.77;100173.16;12206072;19;19915;-81
2022/08/29 10:12:44;;;;;;;;;;;;;;;25.73;39.21;100162.38;12240164;19;19927;-82
2022/08/29 10:21:52;;;;;;;;;;;;;;;26.48;37.67;100165.22;12242790;19;19923;-83
2022/08/29 10:25:56;;;;;;;;;;;;;;;26.50;36.88;100156.41;12219434;19;19915;-80
2022/08/29 10:29:58;;;;;;;;;;;;;;;26.71;36.89;100157.22;12246347;19;19940;-82
2022/08/29 10:34:14;;;;;;;;;;;;;;;26.81;37.01;100153.91;12244520;19;19919;-81
2022/08/29 10:38:42;;;;;;;;;;;;;;;27.17;36.22;100152.31;12223182;19;19921;-81
2022/08/29 10:42:46;;;;;;;;;;;;;;;27.24;35.90;100146.88;12240735;19;19921;-83
2022/08/29 10:46:59;;;;;;;;;;;;;;;27.40;35.82;100143.38;12221065;19;19918;-80
2022/08/29 10:51:06;;;;;;;;;;;;;;;27.55;35.16;100147.47;12242937;19;19922;-81
2022/08/29 10:55:27;;;;;;;;;;;;;;;27.79;35.02;100144.63;12243166;19;19918;-83
2022/08/29 10:59:36;;;;;;;;;;;;;;;27.86;34.05;100132.66;12215116;19;19918;-83
2022/08/29 11:03:39;;;;;;;;;;;;;;;27.92;34.71;100131.22;12239215;19;19966;-82
2022/08/29 11:07:45;;;;;;;;;;;;;;;28.25;33.74;100130.16;12232302;19;19915;-81
2022/08/29 11:11:58;;;;;;;;;;;;;;;28.47;32.47;100123.94;12239227;19;20297;-84
2022/08/29 11:16:29;;;;;;;;;;;;;;;28.27;32.76;100125.78;12238455;19;20336;-83
2022/08/29 11:20:39;;;;;;;;;;;;;;;28.45;33.42;100123.47;12217921;19;19933;-84
2022/08/29 11:24:42;;;;;;;;;;;;;;;28.55;32.54;100114.41;12239222;19;19910;-82
2022/08/29 11:28:47;;;;;;;;;;;;;;;28.91;32.41;100104.00;12221783;19;19919;-84
2022/08/29 11:33:00;;;;;;;;;;;;;;;29.16;31.72;100104.66;12237432;19;19910;-82
2022/08/29 11:37:20;;;;;;;;;;;;;;;29.37;31.68;100093.00;12237899;19;19935;-83
2022/08/29 11:41:25;;;;;;;;;;;;;;;29.51;31.44;100090.50;12216671;19;19910;-82
2022/08/29 11:45:31;;;;;;;;;;;;;;;29.91;30.71;100089.34;12240399;19;20001;-84
2022/08/29 11:49:47;;;;;;;;;;;;;;;30.59;30.40;100081.34;12241191;19;19922;-80
2022/08/29 11:53:48;;;;;;;;;;;;;;;30.79;28.87;100087.81;12217052;19;19924;-81
2022/08/29 11:57:52;;;;;;;;;;;;;;;31.37;28.93;100079.00;12238295;19;19919;-80
2022/08/29 12:01:56;;;;;;;;;;;;;;;31.64;28.41;100071.25;12215809;19;19944;-80
2022/08/29 12:06:00;;;;;;;;;;;;;;;31.76;27.67;100073.84;12240159;19;19941;-80
2022/08/29 12:10:10;;;;;;;;;;;;;;;31.95;26.95;100074.94;12240582;19;19914;-81
2022/08/29 12:14:27;;;;;;;;;;;;;;;31.95;26.87;100072.91;12219540;19;19919;-81
2022/08/29 12:18:30;;;;;;;;;;;;;;;32.05;27.61;100056.31;12240695;19;19911;-79
2022/08/29 12:22:55;;;;;;;;;;;;;;;32.47;26.26;100060.84;12236676;19;19914;-80
2022/08/29 12:26:57;;;;;;;;;;;;;;;32.86;25.97;100058.34;12215853;19;19915;-80
2022/08/29 12:31:11;;;;;;;;;;;;;;;32.85;25.74;100066.09;12232104;19;19911;-81
2022/08/29 12:35:12;;;;;;;;;;;;;;;32.95;25.81;100064.53;12209674;19;19951;-81
2022/08/29 12:39:29;;;;;;;;;;;;;;;33.37;25.62;100057.50;12233504;19;19922;-81
2022/08/29 12:43:35;;;;;;;;;;;;;;;33.93;25.23;100052.50;12237647;19;19911;-81
2022/08/29 12:47:39;;;;;;;;;;;;;;;34.40;23.79;100042.84;12212422;19;19911;-80
2022/08/29 12:51:47;;;;;;;;;;;;;;;34.26;23.67;100037.91;12230017;19;19910;-80
2022/08/29 12:55:57;;;;;;;;;;;;;;;34.37;23.57;100035.06;12212427;19;19939;-80
2022/08/29 13:00:00;;;;;;;;;;;;;;;35.01;23.17;100013.41;12232363;19;19911;-80
2022/08/29 13:04:08;;;;;;;;;;;;;;;35.62;22.76;100027.66;12234397;19;19907;-82
2022/08/29 13:08:11;;;;;;;;;;;;;;;35.85;21.84;100019.34;12210383;19;19915;-81
2022/08/29 13:12:20;;;;;;;;;;;;;;;36.08;21.52;100024.56;12228620;19;19914;-81
2022/08/29 13:16:24;;;;;;;;;;;;;;;36.11;21.92;100015.13;12229663;19;19927;-79
2022/08/29 13:20:47;;;;;;;;;;;;;;;36.22;20.79;100012.19;12208385;19;19918;-80
2022/08/29 13:25:00;;;;;;;;;;;;;;;36.11;20.94;100002.84;12230877;19;20364;-81
2022/08/29 13:29:01;;;;;;;;;;;;;;;36.47;21.02;100007.09;12207441;19;19992;-79
2022/08/29 13:33:03;;;;;;;;;;;;;;;36.78;20.04;100000.72;12228049;19;19907;-81
2022/08/29 13:37:07;;;;;;;;;;;;;;;37.11;20.01;100002.06;12253923;19;19918;-78
2022/08/29 13:41:27;;;;;;;;;;;;;;;37.76;19.99;100000.06;12252561;19;19911;-78
2022/08/29 13:45:29;;;;;;;;;;;;;;;38.12;19.72;99993.84;12258884;19;19971;-81
2022/08/29 13:49:32;;;;;;;;;;;;;;;37.88;18.73;99992.91;12246715;19;19919;-83
2022/08/29 13:53:34;;;;;;;;;;;;;;;38.10;19.33;99984.00;12221446;19;19914;-80
2022/08/29 13:57:38;;;;;;;;;;;;;;;36.81;19.21;99980.56;12248780;19;19919;-82
2022/08/29 14:01:39;;;;;;;;;;;;;;;35.17;20.12;99988.06;12245040;19;19915;-80
2022/08/29 14:06:00;;;;;;;;;;;;;;;33.35;21.77;99980.00;12215074;19;19947;-82
2022/08/29 14:10:03;;;;;;;;;;;;;;;32.57;22.48;99981.09;12253924;19;19911;-81
2022/08/29 14:14:05;;;;;;;;;;;;;;;31.74;23.10;99987.16;12241614;19;19919;-81
2022/08/29 14:18:06;;;;;;;;;;;;;;;30.96;24.32;99984.03;12259788;19;19922;-82
2022/08/29 14:22:08;;;;;;;;;;;;;;;30.73;24.53;99981.19;12258590;19;19914;-80
2022/08/29 14:26:10;;;;;;;;;;;;;;;30.53;24.19;99977.66;12250044;19;19967;-81
2022/08/29 14:30:13;;;;;;;;;;;;;;;30.11;25.26;99984.19;12246338;19;19923;-79
2022/08/29 14:34:15;;;;;;;;;;;;;;;30.59;24.95;99964.75;12255910;19;19918;-80
2022/08/29 14:38:17;;;;;;;;;;;;;;;31.66;23.93;99974.84;12250103;19;19927;-78
2022/08/29 14:42:19;;;;;;;;;;;;;;;31.83;24.13;99964.00;12251270;19;19937;-80
2022/08/29 14:46:20;;;;;;;;;;;;;;;31.80;23.71;99965.66;12251381;19;19914;-82
2022/08/29 14:50:22;;;;;;;;;;;;;;;31.49;23.77;99958.34;12249057;19;19994;-80
2022/08/29 14:54:24;;;;;;;;;;;;;;;31.26;24.50;99953.56;12250150;19;20024;-81
2022/08/29 14:58:26;;;;;;;;;;;;;;;31.01;24.49;99958.09;12242950;19;19911;-80
2022/08/29 15:02:27;;;;;;;;;;;;;;;30.82;24.73;99945.63;12233194;19;20341;-83
2022/08/29 15:06:29;;;;;;;;;;;;;;;30.42;25.32;99947.00;12251388;19;20332;-81
2022/08/29 15:10:30;;;;;;;;;;;;;;;30.57;25.05;99945.22;12240686;19;20007;-81
2022/08/29 15:14:33;;;;;;;;;;;;;;;30.39;25.19;99942.06;12248698;19;19931;-83
2022/08/29 15:18:35;;;;;;;;;;;;;;;29.85;25.53;99931.78;12247803;19;19907;-82
2022/08/29 15:22:57;;;;;;;;;;;;;;;29.85;25.91;99934.59;12247511;19;19953;-82
2022/08/29 15:26:58;;;;;;;;;;;;;;;29.48;25.88;99935.09;12242697;19;20353;-82
2022/08/29 15:31:00;;;;;;;;;;;;;;;29.21;26.08;99924.78;12244696;19;20612;-82
2022/08/29 15:35:02;;;;;;;;;;;;;;;29.06;26.29;99935.84;12246054;19;19994;-82
2022/08/29 15:39:04;;;;;;;;;;;;;;;28.91;26.31;99936.66;12243058;19;20328;-80
2022/08/29 15:43:06;;;;;;;;;;;;;;;28.69;27.32;99941.03;12241383;19;20392;-80
2022/08/29 15:47:07;;;;;;;;;;;;;;;28.56;27.00;99934.66;12244345;19;19918;-81
2022/08/29 15:51:11;;;;;;;;;;;;;;;28.42;27.16;99927.81;12237341;19;19967;-78
2022/08/29 15:55:13;;;;;;;;;;;;;;;28.26;27.42;99928.63;12243284;19;19922;-82
2022/08/29 15:59:15;;;;;;;;;;;;;;;28.07;27.97;99923.69;12239818;19;19929;-82
2022/08/29 16:03:17;;;;;;;;;;;;;;;28.16;28.00;99921.47;12244213;19;19928;-81
2022/08/29 16:07:18;;;;;;;;;;;;;;;28.11;28.32;99930.28;12244734;19;19926;-82
2022/08/29 16:11:20;;;;;;;;;;;;;;;28.20;28.18;99917.91;12243748;19;19932;-82
2022/08/29 16:15:21;;;;;;;;;;;;;;;28.39;27.76;99916.00;12245669;19;19939;-81
2022/08/29 16:19:23;;;;;;;;;;;;;;;28.26;27.58;99917.28;12239169;19;19918;-80
2022/08/29 16:23:24;;;;;;;;;;;;;;;28.09;27.78;99915.66;12239498;19;19919;-81
2022/08/29 16:27:26;;;;;;;;;;;;;;;28.01;28.47;99913.81;12242442;19;19918;-82
2022/08/29 16:31:28;;;;;;;;;;;;;;;27.98;28.61;99914.53;12249129;19;20368;-80
2022/08/29 16:35:29;;;;;;;;;;;;;;;27.92;28.49;99913.16;12244522;19;19926;-81
2022/08/29 16:39:31;;;;;;;;;;;;;;;27.70;28.49;99904.09;12244765;19;20515;-82
2022/08/29 16:43:33;;;;;;;;;;;;;;;27.51;29.09;99901.09;12239904;19;19915;-81
2022/08/29 16:47:34;;;;;;;;;;;;;;;27.42;29.01;99909.75;12245526;19;19910;-81
2022/08/29 16:51:36;;;;;;;;;;;;;;;27.33;28.75;99908.28;12250331;19;19906;-82
2022/08/29 16:55:38;;;;;;;;;;;;;;;27.24;29.62;99911.25;12254039;19;19907;-80
2022/08/29 16:59:41;;;;;;;;;;;;;;;27.16;29.49;99900.94;12247220;19;19926;-80
2022/08/29 17:03:43;;;;;;;;;;;;;;;27.10;30.04;99906.00;12241037;19;19914;-80
2022/08/29 17:19:49;;;;;;;;;;;;;;;26.57;30.15;99902.34;12239010;19;19936;-79
2022/08/29 17:23:50;;;;;;;;;;;;;;;26.50;30.16;99900.13;12241695;19;20000;-79
2022/08/29 17:27:52;;;;;;;;;;;;;;;26.42;30.27;99903.03;12240521;19;19931;-79
2022/08/29 17:32:14;;;;;;;;;;;;;;;26.21;30.40;99900.34;12238620;19;19918;-79
2022/08/29 17:36:15;;;;;;;;;;;;;;;26.08;30.70;99902.31;12240913;19;19943;-79
2022/08/29 17:40:17;;;;;;;;;;;;;;;25.91;31.37;99907.03;12239039;19;20019;-79
2022/08/29 17:44:19;;;;;;;;;;;;;;;25.75;31.01;99911.66;12237544;19;19930;-79
2022/08/29 17:48:21;;;;;;;;;;;;;;;25.59;31.38;99907.88;12242525;19;19919;-79
2022/08/29 17:52:22;;;;;;;;;;;;;;;25.36;31.49;99913.88;12241362;19;19907;-79
2022/08/29 17:56:26;;;;;;;;;;;;;;;25.16;31.63;99911.91;12242317;19;19907;-79
2022/08/29 18:00:28;;;;;;;;;;;;;;;24.92;32.05;99913.41;12235837;19;20349;-79
2022/08/29 18:04:30;;;;;;;;;;;;;;;24.68;32.56;99913.28;12235180;19;19963;-79
2022/08/29 18:08:31;;;;;;;;;;;;;;;24.45;32.66;99912.75;12238722;19;19914;-79
2022/08/29 18:12:36;;;;;;;;;;;;;;;24.18;33.15;99922.47;12228144;19;19986;-78
2022/08/29 18:16:38;;;;;;;;;;;;;;;23.91;33.63;99929.38;12237283;19;20502;-79
2022/08/29 18:20:40;;;;;;;;;;;;;;;23.61;34.35;99927.25;12229585;19;19934;-78
2022/08/29 18:24:41;;;;;;;;;;;;;;;23.36;34.53;99928.97;12235067;19;19934;-78
2022/08/29 18:28:43;;;;;;;;;;;;;;;23.13;35.08;99936.75;12236469;19;19988;-79
2022/08/29 18:32:44;;;;;;;;;;;;;;;22.95;35.64;99937.91;12247987;19;19923;-79
2022/08/29 18:36:46;;;;;;;;;;;;;;;22.75;35.51;99928.97;12247300;19;19986;-78
2022/08/29 18:40:48;;;;;;;;;;;;;;;22.59;35.93;99947.41;12243023;19;19928;-80
2022/08/29 18:44:54;;;;;;;;;;;;;;;22.43;36.09;99932.19;12246194;19;19910;-79
2022/08/29 18:48:56;;;;;;;;;;;;;;;22.29;36.35;99954.75;12248388;19;20305;-80
2022/08/29 18:52:57;;;;;;;;;;;;;;;22.17;36.53;99957.38;12246413;19;19939;-79
2022/08/29 18:56:59;;;;;;;;;;;;;;;22.07;37.09;99952.81;12248574;19;19917;-79
2022/08/29 19:01:16;;;;;;;;;;;;;;;22.01;37.15;99954.09;12241893;19;19923;-79
2022/08/29 19:05:29;;;;;;;;;;;;;;;21.94;37.87;99954.56;12248255;19;20339;-79
2022/08/29 19:09:31;;;;;;;;;;;;;;;21.88;37.10;99960.66;12251108;19;19935;-79
2022/08/29 19:13:34;;;;;;;;;;;;;;;21.81;38.17;99963.94;12275645;19;19918;-79
2022/08/29 19:17:36;;;;;;;;;;;;;;;21.76;37.05;99973.28;12289682;19;19914;-79
2022/08/29 19:21:38;;;;;;;;;;;;;;;21.73;37.40;99973.09;12293186;19;19922;-81
2022/08/29 19:25:40;;;;;;;;;;;;;;;21.68;37.22;99979.66;12293063;19;19938;-79
2022/08/29 19:29:42;;;;;;;;;;;;;;;21.65;37.82;99983.09;12187411;19;20022;-83
2022/08/29 19:33:49;;;;;;;;;;;;;;;21.65;37.37;99990.69;12230982;19;19980;-83
2022/08/29 19:37:51;;;;;;;;;;;;;;;21.68;37.26;99987.25;12230817;19;19927;-82
2022/08/29 19:41:52;;;;;;;;;;;;;;;21.67;37.19;99980.81;12202175;19;19915;-83
2022/08/29 19:45:56;;;;;;;;;;;;;;;21.66;36.64;99975.53;12223555;19;19929;-82
2022/08/29 19:50:00;;;;;;;;;;;;;;;21.63;36.98;99985.44;12270131;19;19926;-82
2022/08/29 19:54:02;;;;;;;;;;;;;;;21.61;37.51;99984.91;12249705;19;19915;-81
2022/08/29 19:58:05;;;;;;;;;;;;;;;21.59;37.72;99975.97;12235879;19;19919;-82
2022/08/29 20:02:07;;;;;;;;;;;;;;;21.58;37.78;99985.53;12227475;19;19914;-83
2022/08/29 20:06:09;;;;;;;;;;;;;;;21.49;37.67;99987.47;12202410;19;19932;-82
2022/08/29 20:10:12;;;;;;;;;;;;;;;21.43;37.68;99988.72;12214593;19;19980;-83
2022/08/29 20:14:15;;;;;;;;;;;;;;;21.38;37.92;99998.91;12214281;19;19923;-80
2022/08/29 20:18:18;;;;;;;;;;;;;;;21.34;37.70;99991.44;12198139;19;19922;-80
2022/08/29 20:22:20;;;;;;;;;;;;;;;21.29;37.84;99983.16;12220664;19;19922;-82
2022/08/29 20:26:22;;;;;;;;;;;;;;;21.20;38.15;99988.66;12217955;19;19918;-82
2022/08/29 20:30:25;;;;;;;;;;;;;;;21.11;38.50;99983.00;12199138;19;19918;-83
2022/08/29 20:34:29;;;;;;;;;;;;;;;21.01;38.76;99990.81;12221458;19;19984;-83
2022/08/29 20:38:40;;;;;;;;;;;;;;;21.01;38.59;99988.03;12228460;19;19947;-83
2022/08/29 20:42:53;;;;;;;;;;;;;;;20.93;38.86;99993.22;12250326;19;19918;-83
2022/08/29 20:46:57;;;;;;;;;;;;;;;20.86;39.51;99992.00;12252797;19;20320;-82
2022/08/29 20:51:00;;;;;;;;;;;;;;;20.79;39.38;99994.38;12224574;19;19950;-81
2022/08/29 20:55:08;;;;;;;;;;;;;;;20.75;39.35;99998.97;12247669;19;19955;-82
2022/08/29 20:59:40;;;;;;;;;;;;;;;20.75;40.18;99998.97;12220233;19;19931;-82
2022/08/29 21:13:37;;;;;;;;;;;;;;;20.67;40.13;100009.75;12230482;19;20241;-81
2022/08/29 21:17:44;;;;;;;;;;;;;;;20.60;40.65;100016.91;12189374;19;19935;-81
2022/08/29 21:21:45;;;;;;;;;;;;;;;20.47;41.19;100018.53;12213530;19;19930;-82